Sherman-Denison, TX

12:55 AM CST on February 25, 2018 (GMT -0600)
Sherman-Denison

Weather History for KGYI - February, 2014

Change the Weather History Date:

Friday, February 21, 2014

  Actual Average (KDFW) Record (KDFW)
Temperature  
Mean Temperature 47 °F -  
Max Temperature 64 °F 58 °F 95 °F (1996)
Min Temperature 30 °F 40 °F 18 °F (1939)
Degree Days  
Heating Degree Days 18    
Moisture  
Dew Point 20 °F    
Average Humidity 37    
Maximum Humidity 72    
Minimum Humidity 13    
Precipitation  
Precipitation 0.00 in - - ()
Sea Level Pressure  
Sea Level Pressure 30.08 in    
Wind  
Wind Speed 5 mph (South)    
Max Wind Speed 18 mph    
Max Gust Speed 23 mph    
Visibility 10 miles    
Events      
Averages and records for this station are not official NWS values.
T = Trace of Precipitation, MM = Missing Value Source: NWS Daily Summary

Daily Weather History Graph

Daily Weather History Graph

Search for Another Location

Airport or City:

Trip Planner

Search our weather history database for the weather conditions in past years. The results will help you decide how hot, cold, wet, or windy it might be!

Date:

Astronomy

Feb. 21, 2014 Rise Set
Actual Time 7:04 AM CST 6:16 PM CST
Civil Twilight 6:39 AM CST 6:41 PM CST
Nautical Twilight 6:10 AM CST 7:10 PM CST
Astronomical Twilight 5:41 AM CST 7:39 PM CST
Moon No Moon Rise 10:48 AM CST (2/21)
Length of Visible Light 12h 02m
Length of Day
11h 11m
Waning Gibbous, 60% of the Moon is Illuminated
Feb 21
Waning Gibbous
Feb 22
Last Quarter
Mar 1
New
Mar 8
First Quarter
Mar 16
Full

Hourly Weather History & Observations

Time (CST) Temp. Windchill Dew Point Humidity Pressure Visibility Wind Dir Wind Speed Gust Speed Precip Events Conditions
12:15 AM 38.8 °F - 24.8 °F 57% 30.12 in 10.0 mi Calm Calm - N/A   Clear
12:35 AM 37.0 °F - 25.3 °F 63% 30.12 in 10.0 mi Calm Calm - N/A   Clear
12:55 AM 38.3 °F - 24.3 °F 57% 30.12 in 10.0 mi Calm Calm - N/A   Clear
1:15 AM 39.2 °F - 23.7 °F 54% 30.12 in 10.0 mi Calm Calm - N/A   Clear
1:35 AM 38.1 °F - 24.6 °F 58% 30.12 in 10.0 mi Calm Calm - N/A   Clear
1:55 AM 37.0 °F - 25.0 °F 62% 30.12 in 10.0 mi Calm Calm - N/A   Clear
2:15 AM 37.6 °F - 23.5 °F 57% 30.12 in 10.0 mi Calm Calm - N/A   Clear
2:35 AM 38.3 °F - 23.9 °F 56% 30.11 in 10.0 mi Calm Calm - N/A   Clear
2:55 AM 34.3 °F - 26.2 °F 72% 30.11 in 10.0 mi Calm Calm - N/A   Clear
3:15 AM 36.1 °F - 25.3 °F 65% 30.11 in 10.0 mi Calm Calm - N/A   Clear
3:35 AM 34.7 °F - 22.8 °F 62% 30.10 in 10.0 mi Calm Calm - N/A   Clear
3:55 AM 36.5 °F - 22.1 °F 56% 30.10 in 10.0 mi Calm Calm - N/A   Clear
4:15 AM 35.8 °F - 22.1 °F 58% 30.10 in 10.0 mi Calm Calm - N/A   Clear
4:35 AM 36.3 °F - 22.5 °F 57% 30.10 in 10.0 mi Calm Calm - N/A   Clear
4:55 AM 36.0 °F - 21.7 °F 56% 30.11 in 10.0 mi Calm Calm - N/A   Clear
5:15 AM 34.3 °F - 21.2 °F 59% 30.12 in 10.0 mi Calm Calm - N/A   Clear
5:35 AM 33.8 °F - 21.2 °F 60% 30.12 in 10.0 mi Calm Calm - N/A   Clear
5:55 AM 34.7 °F - 20.3 °F 56% 30.12 in 10.0 mi Calm Calm - N/A   Clear
6:15 AM 37.0 °F - 19.9 °F 50% 30.11 in 10.0 mi Calm Calm - N/A   Clear
6:35 AM 36.0 °F - 19.6 °F 51% 30.12 in 10.0 mi Calm Calm - N/A   Clear
6:55 AM 32.7 °F - 19.2 °F 58% 30.13 in 10.0 mi Calm Calm - N/A   Clear
7:15 AM 30.2 °F 26.7 °F 21.0 °F 69% 30.13 in 10.0 mi SSW 3.5 mph - N/A   Clear
7:35 AM 31.3 °F 24.7 °F 21.7 °F 68% 30.15 in 10.0 mi SSW 6.9 mph - N/A   Clear
7:55 AM 33.8 °F 27.0 °F 25.3 °F 71% 30.16 in 10.0 mi SSW 8.1 mph - N/A   Clear
8:15 AM 37.9 °F 33.5 °F 27.3 °F 66% 30.16 in 10.0 mi SSW 5.8 mph - N/A   Clear
8:35 AM 41.7 °F 37.3 °F 27.9 °F 58% 30.17 in 10.0 mi SSW 6.9 mph - N/A   Clear
8:55 AM 44.6 °F 38.8 °F 25.2 °F 46% 30.18 in 10.0 mi SSW 11.5 mph - N/A   Clear
9:15 AM 46.4 °F 41.5 °F 24.6 °F 42% 30.18 in 10.0 mi SSW 10.4 mph - N/A   Clear
9:35 AM 48.9 °F - 21.7 °F 34% 30.17 in 10.0 mi SSW 8.1 mph - N/A   Clear
9:55 AM 51.6 °F - 21.0 °F 30% 30.17 in 10.0 mi SSW 5.8 mph - N/A   Clear
10:15 AM 54.0 °F - 18.1 °F 25% 30.16 in 10.0 mi South 8.1 mph - N/A   Clear
10:35 AM 56.5 °F - 11.3 °F 17% 30.15 in 10.0 mi SSE 10.4 mph - N/A   Clear
10:55 AM 58.1 °F - 9.3 °F 14% 30.15 in 10.0 mi South 11.5 mph 16.1 mph N/A   Clear
11:15 AM 58.3 °F - 10.4 °F 15% 30.14 in 10.0 mi South 10.4 mph 16.1 mph N/A   Clear
11:35 AM 59.0 °F - 8.8 °F 14% 30.13 in 10.0 mi South 12.7 mph 16.1 mph N/A   Clear
11:55 AM 59.5 °F - 10.0 °F 14% 30.12 in 10.0 mi South 15.0 mph 19.6 mph N/A   Clear
12:15 PM 60.4 °F - 10.9 °F 14% 30.12 in 10.0 mi SSW 12.7 mph 18.4 mph N/A   Clear
12:35 PM 60.8 °F - 10.8 °F 14% 30.11 in 10.0 mi SSW 17.3 mph 21.9 mph N/A   Clear
12:55 PM 61.5 °F - 11.1 °F 14% 30.09 in 10.0 mi SW 12.7 mph 21.9 mph N/A   Clear
1:15 PM 62.4 °F - 11.7 °F 14% 30.08 in 10.0 mi SSW 16.1 mph 19.6 mph N/A   Clear
1:35 PM 62.6 °F - 12.6 °F 14% 30.06 in 10.0 mi SSW 16.1 mph - N/A   Clear
2:15 PM 63.3 °F - 12.0 °F 13% 30.04 in 10.0 mi South 17.3 mph 23.0 mph N/A   Clear
2:35 PM 63.3 °F - 11.1 °F 13% 30.03 in 10.0 mi SSW 18.4 mph - N/A   Clear
2:55 PM 64.4 °F - 12.9 °F 14% 30.02 in 10.0 mi SSW 15.0 mph 20.7 mph N/A   Clear
3:15 PM 64.0 °F - 13.5 °F 14% 30.01 in 10.0 mi SSW 11.5 mph - N/A   Clear
3:35 PM 64.2 °F - 13.5 °F 14% 30.01 in 10.0 mi SSW 16.1 mph 21.9 mph N/A   Clear
3:55 PM 64.4 °F - 13.8 °F 14% 30.01 in 10.0 mi SSW 17.3 mph 20.7 mph N/A   Clear
4:15 PM 64.4 °F - 13.3 °F 14% 30.01 in 10.0 mi South 17.3 mph - N/A   Clear
4:35 PM 64.2 °F - 14.7 °F 15% 30.00 in 10.0 mi South 17.3 mph - N/A   Clear
4:55 PM 63.7 °F - 14.4 °F 15% 30.00 in 10.0 mi SSW 13.8 mph 20.7 mph N/A   Clear
5:15 PM 62.8 °F - 14.9 °F 16% 30.00 in 10.0 mi South 15.0 mph - N/A   Clear
5:35 PM 61.9 °F - 15.6 °F 17% 30.00 in 10.0 mi South 13.8 mph 19.6 mph N/A   Clear
5:55 PM 59.9 °F - 18.0 °F 20% 30.00 in 10.0 mi South 9.2 mph - N/A   Clear
6:15 PM 55.8 °F - 20.5 °F 25% 30.01 in 10.0 mi South 8.1 mph - N/A   Clear
6:35 PM 54.1 °F - 20.3 °F 27% 30.02 in 10.0 mi SSE 4.6 mph - N/A   Clear
6:55 PM 53.2 °F - 20.8 °F 28% 30.01 in 10.0 mi SSE 5.8 mph - N/A   Clear
7:15 PM 55.0 °F - 19.8 °F 25% 30.01 in 10.0 mi SE 6.9 mph - N/A   Clear
7:35 PM 55.4 °F - 19.8 °F 25% 30.02 in 10.0 mi SE 9.2 mph - N/A   Clear
7:55 PM 55.4 °F - 20.1 °F 25% 30.01 in 10.0 mi SE 11.5 mph - N/A   Clear
8:15 PM 54.7 °F - 20.8 °F 27% 30.01 in 10.0 mi SE 11.5 mph - N/A   Clear
8:35 PM 53.6 °F - 22.1 °F 29% 30.01 in 10.0 mi SSE 10.4 mph - N/A   Clear
8:55 PM 53.1 °F - 22.3 °F 30% 30.01 in 10.0 mi SSE 10.4 mph - N/A   Clear
9:15 PM 52.9 °F - 23.2 °F 31% 30.02 in 10.0 mi SSE 10.4 mph - N/A   Clear
9:35 PM 52.7 °F - 24.3 °F 33% 30.02 in 10.0 mi SSE 10.4 mph - N/A   Clear
9:55 PM 52.5 °F - 25.7 °F 35% 30.02 in 10.0 mi SSE 11.5 mph - N/A   Clear
10:15 PM 52.3 °F - 26.2 °F 36% 30.02 in 10.0 mi SSE 10.4 mph - N/A   Clear
10:35 PM 51.8 °F - 26.6 °F 38% 30.02 in 10.0 mi SSE 10.4 mph - N/A   Clear
10:55 PM 51.6 °F - 26.6 °F 38% 30.02 in 10.0 mi SSE 10.4 mph - N/A   Clear
11:15 PM 52.0 °F - 26.6 °F 37% 30.01 in 10.0 mi SSE 12.7 mph - N/A   Clear
11:35 PM 52.3 °F - 26.6 °F 37% 30.01 in 10.0 mi SSE 12.7 mph - N/A   Clear
11:55 PM 52.9 °F - 26.8 °F 36% 30.01 in 10.0 mi South 15.0 mph - N/A   Clear